sensor_id;sensor_type;location;lat;lon;timestamp;pressure;altitude;pressure_sealevel;temperature;humidity
30383;BME280;17179;48.022;7.858;2022-07-11T00:01:32;99432.56;;;15.76;41.07
30383;BME280;17179;48.022;7.858;2022-07-11T00:03:57;99428.22;;;15.75;40.38
30383;BME280;17179;48.022;7.858;2022-07-11T00:06:23;99430.13;;;15.74;40.27
30383;BME280;17179;48.022;7.858;2022-07-11T00:08:48;99427.41;;;15.74;39.85
30383;BME280;17179;48.022;7.858;2022-07-11T00:11:13;99428.22;;;15.75;40.08
30383;BME280;17179;48.022;7.858;2022-07-11T00:13:39;99425.78;;;15.78;40.56
30383;BME280;17179;48.022;7.858;2022-07-11T00:16:04;99426.31;;;15.81;39.78
30383;BME280;17179;48.022;7.858;2022-07-11T00:18:30;99421.41;;;15.83;40.09
30383;BME280;17179;48.022;7.858;2022-07-11T00:20:55;99425.22;;;15.87;39.94
30383;BME280;17179;48.022;7.858;2022-07-11T00:23:21;99415.69;;;15.89;39.88
30383;BME280;17179;48.022;7.858;2022-07-11T00:25:46;99409.66;;;15.93;39.88
30383;BME280;17179;48.022;7.858;2022-07-11T00:28:12;99413.78;;;15.95;39.96
30383;BME280;17179;48.022;7.858;2022-07-11T00:30:38;99397.16;;;15.97;39.77
30383;BME280;17179;48.022;7.858;2022-07-11T00:33:03;99391.97;;;16.00;39.19
30383;BME280;17179;48.022;7.858;2022-07-11T00:35:29;99399.06;;;16.01;39.52
30383;BME280;17179;48.022;7.858;2022-07-11T00:37:54;99400.69;;;16.02;39.52
30383;BME280;17179;48.022;7.858;2022-07-11T00:40:19;99397.97;;;16.02;39.84
30383;BME280;17179;48.022;7.858;2022-07-11T00:42:45;99398.50;;;16.05;39.31
30383;BME280;17179;48.022;7.858;2022-07-11T00:45:10;99403.97;;;16.05;39.17
30383;BME280;17179;48.022;7.858;2022-07-11T00:47:35;99405.63;;;16.06;39.19
30383;BME280;17179;48.022;7.858;2022-07-11T00:50:01;99405.63;;;16.06;39.34
30383;BME280;17179;48.022;7.858;2022-07-11T00:52:26;99409.44;;;16.05;39.25
30383;BME280;17179;48.022;7.858;2022-07-11T00:54:52;99416.78;;;16.04;39.71
30383;BME280;17179;48.022;7.858;2022-07-11T00:57:19;99409.72;;;16.03;39.82
30383;BME280;17179;48.022;7.858;2022-07-11T00:59:44;99408.34;;;16.00;39.55
30383;BME280;17179;48.022;7.858;2022-07-11T01:02:10;99411.34;;;15.99;39.72
30383;BME280;17179;48.022;7.858;2022-07-11T01:04:35;99408.88;;;15.97;40.37
30383;BME280;17179;48.022;7.858;2022-07-11T01:07:01;99409.41;;;15.94;39.96
30383;BME280;17179;48.022;7.858;2022-07-11T01:09:26;99406.94;;;15.93;40.54
30383;BME280;17179;48.022;7.858;2022-07-11T01:11:52;99406.66;;;15.89;40.33
30383;BME280;17179;48.022;7.858;2022-07-11T01:14:17;99401.78;;;15.86;40.28
30383;BME280;17179;48.022;7.858;2022-07-11T01:16:44;99400.41;;;15.83;40.63
30383;BME280;17179;48.022;7.858;2022-07-11T01:19:09;99393.59;;;15.81;40.34
30383;BME280;17179;48.022;7.858;2022-07-11T01:21:38;99393.03;;;15.84;39.98
30383;BME280;17179;48.022;7.858;2022-07-11T01:24:05;99385.38;;;15.75;40.45
30383;BME280;17179;48.022;7.858;2022-07-11T01:26:30;99391.94;;;15.74;40.05
30383;BME280;17179;48.022;7.858;2022-07-11T01:29:05;99387.03;;;15.76;39.64
30383;BME280;17179;48.022;7.858;2022-07-11T01:31:31;99385.66;;;15.69;40.39
30383;BME280;17179;48.022;7.858;2022-07-11T01:33:57;99387.03;;;15.66;40.95
30383;BME280;17179;48.022;7.858;2022-07-11T01:36:23;99378.28;;;15.64;40.81
30383;BME280;17179;48.022;7.858;2022-07-11T01:38:48;99382.41;;;15.61;41.13
30383;BME280;17179;48.022;7.858;2022-07-11T01:41:13;99377.19;;;15.60;41.09
30383;BME280;17179;48.022;7.858;2022-07-11T01:43:39;99381.03;;;15.59;40.88
30383;BME280;17179;48.022;7.858;2022-07-11T01:46:04;99381.03;;;15.59;41.29
30383;BME280;17179;48.022;7.858;2022-07-11T01:48:30;99373.94;;;15.58;41.44
30383;BME280;17179;48.022;7.858;2022-07-11T01:50:55;99376.91;;;15.56;41.87
30383;BME280;17179;48.022;7.858;2022-07-11T01:53:21;99364.66;;;15.53;41.74
30383;BME280;17179;48.022;7.858;2022-07-11T01:55:46;99367.41;;;15.53;41.49
30383;BME280;17179;48.022;7.858;2022-07-11T01:58:12;99369.28;;;15.53;41.28
30383;BME280;17179;48.022;7.858;2022-07-11T02:00:37;99367.91;;;15.50;41.45
30383;BME280;17179;48.022;7.858;2022-07-11T02:03:03;99364.13;;;15.51;41.30
30383;BME280;17179;48.022;7.858;2022-07-11T02:05:29;99364.41;;;15.50;41.35
30383;BME280;17179;48.022;7.858;2022-07-11T02:07:54;99365.47;;;15.49;41.30
30383;BME280;17179;48.022;7.858;2022-07-11T02:10:44;99360.28;;;15.52;40.71
30383;BME280;17179;48.022;7.858;2022-07-11T02:13:11;99363.84;;;15.48;41.64
30383;BME280;17179;48.022;7.858;2022-07-11T02:15:37;99362.19;;;15.47;41.51
30383;BME280;17179;48.022;7.858;2022-07-11T02:18:03;99359.75;;;15.45;41.79
30383;BME280;17179;48.022;7.858;2022-07-11T02:20:28;99365.19;;;15.45;41.27
30383;BME280;17179;48.022;7.858;2022-07-11T02:22:54;99367.38;;;15.43;41.17
30383;BME280;17179;48.022;7.858;2022-07-11T02:25:19;99360.00;;;15.43;41.66
30383;BME280;17179;48.022;7.858;2022-07-11T02:27:46;99363.28;;;15.40;41.47
30383;BME280;17179;48.022;7.858;2022-07-11T02:30:11;99373.38;;;15.40;41.44
30383;BME280;17179;48.022;7.858;2022-07-11T02:32:37;99368.19;;;15.38;41.41
30383;BME280;17179;48.022;7.858;2022-07-11T02:35:04;99373.88;;;15.37;41.38
30383;BME280;17179;48.022;7.858;2022-07-11T02:37:29;99370.66;;;15.35;41.64
30383;BME280;17179;48.022;7.858;2022-07-11T02:39:55;99367.91;;;15.35;41.63
30383;BME280;17179;48.022;7.858;2022-07-11T02:42:20;99366.25;;;15.34;41.53
30383;BME280;17179;48.022;7.858;2022-07-11T02:44:46;99364.09;;;15.30;41.90
30383;BME280;17179;48.022;7.858;2022-07-11T02:47:11;99366.25;;;15.28;41.47
30383;BME280;17179;48.022;7.858;2022-07-11T02:49:39;99360.25;;;15.26;42.02
30383;BME280;17179;48.022;7.858;2022-07-11T02:52:04;99364.88;;;15.26;42.44
30383;BME280;17179;48.022;7.858;2022-07-11T02:54:30;99365.72;;;15.21;42.29
30383;BME280;17179;48.022;7.858;2022-07-11T02:56:55;99367.88;;;15.19;42.57
30383;BME280;17179;48.022;7.858;2022-07-11T02:59:21;99368.94;;;15.18;42.54
30383;BME280;17179;48.022;7.858;2022-07-11T03:01:48;99365.13;;;15.14;42.31
30383;BME280;17179;48.022;7.858;2022-07-11T03:04:13;99376.56;;;15.11;42.69
30383;BME280;17179;48.022;7.858;2022-07-11T03:06:38;99375.69;;;15.05;42.94
30383;BME280;17179;48.022;7.858;2022-07-11T03:09:05;99372.44;;;15.03;42.95
30383;BME280;17179;48.022;7.858;2022-07-11T03:11:31;99369.41;;;14.99;42.47
30383;BME280;17179;48.022;7.858;2022-07-11T03:13:57;99369.97;;;14.96;43.50
30383;BME280;17179;48.022;7.858;2022-07-11T03:16:22;99372.66;;;14.91;43.46
30383;BME280;17179;48.022;7.858;2022-07-11T03:18:47;99365.28;;;14.86;43.03
30383;BME280;17179;48.022;7.858;2022-07-11T03:21:13;99372.09;;;14.83;43.53
30383;BME280;17179;48.022;7.858;2022-07-11T03:23:38;99363.06;;;14.78;43.54
30383;BME280;17179;48.022;7.858;2022-07-11T03:26:03;99361.97;;;14.73;43.69
30383;BME280;17179;48.022;7.858;2022-07-11T03:28:29;99362.78;;;14.69;44.01
30383;BME280;17179;48.022;7.858;2022-07-11T03:30:54;99362.50;;;14.65;44.08
30383;BME280;17179;48.022;7.858;2022-07-11T03:33:20;99363.53;;;14.59;44.33
30383;BME280;17179;48.022;7.858;2022-07-11T03:35:46;99363.25;;;14.55;44.15
30383;BME280;17179;48.022;7.858;2022-07-11T03:38:12;99365.97;;;14.50;44.67
30383;BME280;17179;48.022;7.858;2022-07-11T03:40:38;99360.47;;;14.45;44.40
30383;BME280;17179;48.022;7.858;2022-07-11T03:43:04;99360.44;;;14.40;44.86
30383;BME280;17179;48.022;7.858;2022-07-11T03:45:29;99357.16;;;14.37;44.80
30383;BME280;17179;48.022;7.858;2022-07-11T03:47:55;99352.50;;;14.33;44.63
30383;BME280;17179;48.022;7.858;2022-07-11T03:50:20;99348.44;;;14.30;45.02
30383;BME280;17179;48.022;7.858;2022-07-11T03:52:46;99350.84;;;14.27;45.18
30383;BME280;17179;48.022;7.858;2022-07-11T03:55:12;99347.28;;;14.21;45.28
30383;BME280;17179;48.022;7.858;2022-07-11T03:57:38;99349.44;;;14.19;45.32
30383;BME280;17179;48.022;7.858;2022-07-11T04:00:05;99342.34;;;14.18;45.42
30383;BME280;17179;48.022;7.858;2022-07-11T04:02:32;99347.50;;;14.14;45.87
30383;BME280;17179;48.022;7.858;2022-07-11T04:04:57;99360.50;;;14.12;45.63
30383;BME280;17179;48.022;7.858;2022-07-11T04:07:22;99343.63;;;14.10;45.97
30383;BME280;17179;48.022;7.858;2022-07-11T04:09:48;99345.00;;;14.07;46.41
30383;BME280;17179;48.022;7.858;2022-07-11T04:12:13;99342.53;;;14.06;46.31
30383;BME280;17179;48.022;7.858;2022-07-11T04:14:38;99348.22;;;14.04;46.24
30383;BME280;17179;48.022;7.858;2022-07-11T04:17:04;99356.38;;;14.04;46.39
30383;BME280;17179;48.022;7.858;2022-07-11T04:19:29;99357.72;;;14.01;46.59
30383;BME280;17179;48.022;7.858;2022-07-11T04:21:55;99358.00;;;14.00;46.84
30383;BME280;17179;48.022;7.858;2022-07-11T04:24:21;99353.63;;;13.99;46.42
30383;BME280;17179;48.022;7.858;2022-07-11T04:26:46;99357.19;;;13.99;46.61
30383;BME280;17179;48.022;7.858;2022-07-11T04:29:12;99361.78;;;13.99;46.92
30383;BME280;17179;48.022;7.858;2022-07-11T04:31:37;99362.06;;;13.97;47.08
30383;BME280;17179;48.022;7.858;2022-07-11T04:34:03;99366.41;;;13.98;47.05
30383;BME280;17179;48.022;7.858;2022-07-11T04:36:28;99364.50;;;13.99;47.17
30383;BME280;17179;48.022;7.858;2022-07-11T04:38:53;99370.78;;;13.99;47.50
30383;BME280;17179;48.022;7.858;2022-07-11T04:41:19;99367.78;;;14.01;46.91
30383;BME280;17179;48.022;7.858;2022-07-11T04:43:44;99367.53;;;14.02;47.08
30383;BME280;17179;48.022;7.858;2022-07-11T04:46:10;99365.63;;;14.03;47.72
30383;BME280;17179;48.022;7.858;2022-07-11T04:48:35;99369.47;;;14.07;47.64
30383;BME280;17179;48.022;7.858;2022-07-11T04:51:04;99367.31;;;14.09;47.44
30383;BME280;17179;48.022;7.858;2022-07-11T04:53:29;99374.13;;;14.12;47.55
30383;BME280;17179;48.022;7.858;2022-07-11T04:55:55;99374.44;;;14.16;47.68
30383;BME280;17179;48.022;7.858;2022-07-11T04:58:20;99366.34;;;14.21;46.92
30383;BME280;17179;48.022;7.858;2022-07-11T05:00:45;99365.78;;;14.24;47.51
30383;BME280;17179;48.022;7.858;2022-07-11T05:03:11;99372.91;;;14.30;47.30
30383;BME280;17179;48.022;7.858;2022-07-11T05:05:36;99373.19;;;14.34;46.66
30383;BME280;17179;48.022;7.858;2022-07-11T05:08:01;99374.88;;;14.40;46.32
30383;BME280;17179;48.022;7.858;2022-07-11T05:10:27;99373.81;;;14.46;46.18
30383;BME280;17179;48.022;7.858;2022-07-11T05:12:52;99377.38;;;14.52;46.29
30383;BME280;17179;48.022;7.858;2022-07-11T05:15:18;99370.88;;;14.58;46.65
30383;BME280;17179;48.022;7.858;2022-07-11T05:17:43;99378.56;;;14.67;46.46
30383;BME280;17179;48.022;7.858;2022-07-11T05:20:09;99370.13;;;14.73;46.30
30383;BME280;17179;48.022;7.858;2022-07-11T05:22:34;99376.97;;;14.81;45.71
30383;BME280;17179;48.022;7.858;2022-07-11T05:24:59;99379.75;;;14.87;45.53
30383;BME280;17179;48.022;7.858;2022-07-11T05:27:25;99377.59;;;14.94;45.70
30383;BME280;17179;48.022;7.858;2022-07-11T05:29:50;99375.16;;;15.03;45.71
30383;BME280;17179;48.022;7.858;2022-07-11T05:32:16;99386.91;;;15.08;45.54
30383;BME280;17179;48.022;7.858;2022-07-11T05:34:41;99380.94;;;15.17;45.40
30383;BME280;17179;48.022;7.858;2022-07-11T05:37:07;99384.22;;;15.24;45.13
30383;BME280;17179;48.022;7.858;2022-07-11T05:39:32;99385.63;;;15.32;45.70
30383;BME280;17179;48.022;7.858;2022-07-11T05:41:58;99384.56;;;15.38;44.49
30383;BME280;17179;48.022;7.858;2022-07-11T05:44:23;99382.94;;;15.48;45.04
30383;BME280;17179;48.022;7.858;2022-07-11T05:46:48;99387.28;;;15.54;44.12
30383;BME280;17179;48.022;7.858;2022-07-11T05:49:14;99385.13;;;15.61;44.24
30383;BME280;17179;48.022;7.858;2022-07-11T05:51:39;99386.50;;;15.69;43.86
30383;BME280;17179;48.022;7.858;2022-07-11T05:54:05;99387.03;;;15.76;44.21
30383;BME280;17179;48.022;7.858;2022-07-11T05:56:30;99376.94;;;15.82;44.09
30383;BME280;17179;48.022;7.858;2022-07-11T05:58:56;99382.66;;;15.91;43.84
30383;BME280;17179;48.022;7.858;2022-07-11T06:01:22;99380.78;;;15.97;44.23
30383;BME280;17179;48.022;7.858;2022-07-11T06:03:48;99373.97;;;16.05;44.16
30383;BME280;17179;48.022;7.858;2022-07-11T06:06:13;99370.13;;;16.11;43.94
30383;BME280;17179;48.022;7.858;2022-07-11T06:08:39;99372.31;;;16.19;44.15
30383;BME280;17179;48.022;7.858;2022-07-11T06:11:14;99373.94;;;16.31;43.78
30383;BME280;17179;48.022;7.858;2022-07-11T06:13:41;99368.75;;;16.34;43.90
30383;BME280;17179;48.022;7.858;2022-07-11T06:16:08;99374.72;;;16.42;43.77
30383;BME280;17179;48.022;7.858;2022-07-11T06:18:37;99375.50;;;16.53;43.27
30383;BME280;17179;48.022;7.858;2022-07-11T06:21:04;99382.03;;;16.57;43.52
30383;BME280;17179;48.022;7.858;2022-07-11T06:23:29;99378.75;;;16.65;43.07
30383;BME280;17179;48.022;7.858;2022-07-11T06:25:55;99375.44;;;16.73;43.31
30383;BME280;17179;48.022;7.858;2022-07-11T06:28:21;99377.63;;;16.82;43.14
30383;BME280;17179;48.022;7.858;2022-07-11T06:30:47;99374.31;;;16.90;43.20
30383;BME280;17179;48.022;7.858;2022-07-11T06:33:12;99376.44;;;16.99;42.86
30383;BME280;17179;48.022;7.858;2022-07-11T06:35:37;99368.75;;;17.06;42.81
30383;BME280;17179;48.022;7.858;2022-07-11T06:38:03;99375.28;;;17.15;42.34
30383;BME280;17179;48.022;7.858;2022-07-11T06:40:28;99373.06;;;17.23;42.23
30383;BME280;17179;48.022;7.858;2022-07-11T06:42:54;99371.34;;;17.32;41.83
30383;BME280;17179;48.022;7.858;2022-07-11T06:45:19;99365.28;;;17.40;41.79
30383;BME280;17179;48.022;7.858;2022-07-11T06:47:45;99371.25;;;17.48;41.58
30383;BME280;17179;48.022;7.858;2022-07-11T06:50:10;99372.56;;;17.55;40.82
30383;BME280;17179;48.022;7.858;2022-07-11T06:52:36;99370.06;;;17.64;40.36
30383;BME280;17179;48.022;7.858;2022-07-11T06:55:02;99367.50;;;17.73;40.56
30383;BME280;17179;48.022;7.858;2022-07-11T06:57:28;99370.75;;;17.81;40.22
30383;BME280;17179;48.022;7.858;2022-07-11T06:59:53;99369.34;;;17.88;40.13
30383;BME280;17179;48.022;7.858;2022-07-11T07:02:18;99362.13;;;17.98;40.24
30383;BME280;17179;48.022;7.858;2022-07-11T07:04:44;99369.69;;;18.06;39.81
30383;BME280;17179;48.022;7.858;2022-07-11T07:07:09;99367.16;;;18.15;38.97
30383;BME280;17179;48.022;7.858;2022-07-11T07:09:35;99362.97;;;18.23;39.46
30383;BME280;17179;48.022;7.858;2022-07-11T07:12:00;99366.72;;;18.32;39.36
30383;BME280;17179;48.022;7.858;2022-07-11T07:14:25;99372.66;;;18.40;39.44
30383;BME280;17179;48.022;7.858;2022-07-11T07:16:51;99369.31;;;18.48;39.48
30383;BME280;17179;48.022;7.858;2022-07-11T07:19:16;99371.41;;;18.56;39.11
30383;BME280;17179;48.022;7.858;2022-07-11T07:21:41;99366.38;;;18.64;39.02
30383;BME280;17179;48.022;7.858;2022-07-11T07:24:07;99362.47;;;18.70;38.50
30383;BME280;17179;48.022;7.858;2022-07-11T07:26:33;99358.56;;;18.76;39.16
30383;BME280;17179;48.022;7.858;2022-07-11T07:28:58;99363.69;;;18.83;39.04
30383;BME280;17179;48.022;7.858;2022-07-11T07:31:24;99358.94;;;18.89;37.91
30383;BME280;17179;48.022;7.858;2022-07-11T07:33:49;99362.97;;;18.96;37.95
30383;BME280;17179;48.022;7.858;2022-07-11T07:36:15;99359.88;;;19.03;37.69
30383;BME280;17179;48.022;7.858;2022-07-11T07:38:41;99359.78;;;19.08;37.48
30383;BME280;17179;48.022;7.858;2022-07-11T07:41:09;99365.16;;;19.19;36.42
30383;BME280;17179;48.022;7.858;2022-07-11T07:43:34;99362.34;;;19.24;36.18
30383;BME280;17179;48.022;7.858;2022-07-11T07:46:00;99357.31;;;19.31;35.70
30383;BME280;17179;48.022;7.858;2022-07-11T07:48:25;99359.38;;;19.40;35.11
30383;BME280;17179;48.022;7.858;2022-07-11T07:50:50;99361.47;;;19.48;35.13
30383;BME280;17179;48.022;7.858;2022-07-11T07:53:16;99354.75;;;19.54;35.23
30383;BME280;17179;48.022;7.858;2022-07-11T07:55:41;99355.19;;;19.62;35.44
30383;BME280;17179;48.022;7.858;2022-07-11T07:58:07;99353.69;;;19.70;35.86
30383;BME280;17179;48.022;7.858;2022-07-11T08:00:32;99352.50;;;19.76;35.40
30383;BME280;17179;48.022;7.858;2022-07-11T08:03:16;99355.66;;;19.83;35.52
30383;BME280;17179;48.022;7.858;2022-07-11T08:05:41;99354.47;;;19.89;35.37
30383;BME280;17179;48.022;7.858;2022-07-11T08:08:07;99360.91;;;19.99;35.01
30383;BME280;17179;48.022;7.858;2022-07-11T08:10:32;99348.44;;;20.07;35.10
30383;BME280;17179;48.022;7.858;2022-07-11T08:12:57;99344.47;;;20.13;35.07
30383;BME280;17179;48.022;7.858;2022-07-11T08:15:23;99345.72;;;20.21;35.55
30383;BME280;17179;48.022;7.858;2022-07-11T08:17:48;99345.00;;;20.29;35.11
30383;BME280;17179;48.022;7.858;2022-07-11T08:20:13;99339.94;;;20.36;35.16
30383;BME280;17179;48.022;7.858;2022-07-11T08:22:39;99346.66;;;20.44;34.34
30383;BME280;17179;48.022;7.858;2022-07-11T08:25:05;99340.41;;;20.53;33.91
30383;BME280;17179;48.022;7.858;2022-07-11T08:27:30;99335.31;;;20.60;33.64
30383;BME280;17179;48.022;7.858;2022-07-11T08:29:56;99344.81;;;20.68;33.33
30383;BME280;17179;48.022;7.858;2022-07-11T08:32:21;99337.25;;;20.73;34.00
30383;BME280;17179;48.022;7.858;2022-07-11T08:34:46;99332.19;;;20.81;33.43
30383;BME280;17179;48.022;7.858;2022-07-11T08:37:12;99337.25;;;20.88;33.59
30383;BME280;17179;48.022;7.858;2022-07-11T08:39:37;99339.56;;;20.94;33.32
30383;BME280;17179;48.022;7.858;2022-07-11T08:42:03;99332.84;;;21.01;33.45
30383;BME280;17179;48.022;7.858;2022-07-11T08:44:28;99331.09;;;21.05;32.49
30383;BME280;17179;48.022;7.858;2022-07-11T08:46:54;99330.69;;;21.12;32.88
30383;BME280;17179;48.022;7.858;2022-07-11T08:49:20;99323.13;;;21.17;32.44
30383;BME280;17179;48.022;7.858;2022-07-11T08:51:47;99330.13;;;21.24;32.64
30383;BME280;17179;48.022;7.858;2022-07-11T08:54:12;99317.88;;;21.30;33.64
30383;BME280;17179;48.022;7.858;2022-07-11T08:56:38;99315.53;;;21.37;32.66
30383;BME280;17179;48.022;7.858;2022-07-11T08:59:03;99324.47;;;21.43;32.86
30383;BME280;17179;48.022;7.858;2022-07-11T09:01:31;99317.41;;;21.51;32.98
30383;BME280;17179;48.022;7.858;2022-07-11T09:03:57;99313.41;;;21.57;32.68
30383;BME280;17179;48.022;7.858;2022-07-11T09:06:23;99309.91;;;21.65;32.32
30383;BME280;17179;48.022;7.858;2022-07-11T09:08:49;99316.09;;;21.71;31.74
30383;BME280;17179;48.022;7.858;2022-07-11T09:11:14;99313.69;;;21.78;31.50
30383;BME280;17179;48.022;7.858;2022-07-11T09:13:40;99309.38;;;21.86;31.69
30383;BME280;17179;48.022;7.858;2022-07-11T09:16:07;99304.88;;;21.90;32.22
30383;BME280;17179;48.022;7.858;2022-07-11T09:18:38;99308.97;;;22.02;32.22
30383;BME280;17179;48.022;7.858;2022-07-11T09:21:12;99305.44;;;22.10;32.23
30383;BME280;17179;48.022;7.858;2022-07-11T09:23:58;99305.31;;;22.16;31.73
30383;BME280;17179;48.022;7.858;2022-07-11T09:26:45;99308.44;;;22.23;30.96
30383;BME280;17179;48.022;7.858;2022-07-11T09:31:39;99294.50;;;22.37;32.13
30383;BME280;17179;48.022;7.858;2022-07-11T09:34:15;99299.41;;;22.49;31.89
30383;BME280;17179;48.022;7.858;2022-07-11T09:36:45;99297.66;;;22.53;31.02
30383;BME280;17179;48.022;7.858;2022-07-11T09:39:18;99297.03;;;22.65;31.38
30383;BME280;17179;48.022;7.858;2022-07-11T09:41:45;99288.94;;;22.69;30.14
30383;BME280;17179;48.022;7.858;2022-07-11T09:44:15;99288.13;;;22.77;31.27
30383;BME280;17179;48.022;7.858;2022-07-11T09:46:43;99289.75;;;22.87;31.47
30383;BME280;17179;48.022;7.858;2022-07-11T09:49:09;99284.28;;;22.96;31.61
30383;BME280;17179;48.022;7.858;2022-07-11T09:51:35;99285.91;;;23.06;30.61
30383;BME280;17179;48.022;7.858;2022-07-11T09:54:02;99283.13;;;23.15;30.13
30383;BME280;17179;48.022;7.858;2022-07-11T09:56:37;99288.16;;;23.30;31.32
30383;BME280;17179;48.022;7.858;2022-07-11T09:59:04;99277.75;;;23.36;30.66
30383;BME280;17179;48.022;7.858;2022-07-11T10:01:31;99279.41;;;23.46;31.38
30383;BME280;17179;48.022;7.858;2022-07-11T10:03:56;99281.31;;;23.54;30.61
30383;BME280;17179;48.022;7.858;2022-07-11T10:06:22;99292.81;;;23.65;30.92
30383;BME280;17179;48.022;7.858;2022-07-11T10:08:49;99287.28;;;23.74;30.23
30383;BME280;17179;48.022;7.858;2022-07-11T10:11:15;99283.34;;;23.84;29.26
30383;BME280;17179;48.022;7.858;2022-07-11T10:13:41;99291.59;;;23.93;29.40
30383;BME280;17179;48.022;7.858;2022-07-11T10:16:34;99288.31;;;24.09;30.29
30383;BME280;17179;48.022;7.858;2022-07-11T10:21:56;99281.06;;;24.25;30.05
30383;BME280;17179;48.022;7.858;2022-07-11T10:24:36;99283.47;;;24.36;30.11
30383;BME280;17179;48.022;7.858;2022-07-11T10:27:33;99289.41;;;24.47;30.22
30383;BME280;17179;48.022;7.858;2022-07-11T10:30:01;99283.34;;;24.54;29.03
30383;BME280;17179;48.022;7.858;2022-07-11T10:32:28;99287.72;;;24.64;28.66
30383;BME280;17179;48.022;7.858;2022-07-11T10:35:06;99285.50;;;24.78;29.30
30383;BME280;17179;48.022;7.858;2022-07-11T10:37:45;99290.28;;;24.90;29.52
30383;BME280;17179;48.022;7.858;2022-07-11T10:40:11;99293.19;;;24.94;27.85
30383;BME280;17179;48.022;7.858;2022-07-11T10:42:39;99284.81;;;25.03;28.37
30383;BME280;17179;48.022;7.858;2022-07-11T10:45:09;99282.41;;;25.14;28.78
30383;BME280;17179;48.022;7.858;2022-07-11T10:47:41;99277.97;;;25.22;29.78
30383;BME280;17179;48.022;7.858;2022-07-11T10:50:34;99270.75;;;25.29;29.63
30383;BME280;17179;48.022;7.858;2022-07-11T10:53:08;99273.66;;;25.33;29.89
30383;BME280;17179;48.022;7.858;2022-07-11T10:55:37;99273.34;;;25.35;29.26
30383;BME280;17179;48.022;7.858;2022-07-11T11:00:38;99270.22;;;25.49;30.58
30383;BME280;17179;48.022;7.858;2022-07-11T11:16:40;99255.09;;;26.18;29.23
30383;BME280;17179;48.022;7.858;2022-07-11T11:19:06;99267.00;;;26.31;28.22
30383;BME280;17179;48.022;7.858;2022-07-11T11:21:31;99255.78;;;26.40;29.25
30383;BME280;17179;48.022;7.858;2022-07-11T11:24:01;99251.03;;;26.53;28.99
30383;BME280;17179;48.022;7.858;2022-07-11T11:26:50;99260.94;;;26.66;28.92
30383;BME280;17179;48.022;7.858;2022-07-11T11:29:34;99259.66;;;26.76;28.62
30383;BME280;17179;48.022;7.858;2022-07-11T11:31:59;99254.66;;;26.82;28.13
30383;BME280;17179;48.022;7.858;2022-07-11T11:34:25;99255.69;;;26.90;27.73
30383;BME280;17179;48.022;7.858;2022-07-11T11:36:56;99250.56;;;27.04;28.08
30383;BME280;17179;48.022;7.858;2022-07-11T11:39:24;99253.09;;;27.10;27.65
30383;BME280;17179;48.022;7.858;2022-07-11T11:41:50;99252.47;;;27.16;27.69
30383;BME280;17179;48.022;7.858;2022-07-11T11:44:15;99253.03;;;27.22;27.56
30383;BME280;17179;48.022;7.858;2022-07-11T11:46:40;99254.84;;;27.30;27.79
30383;BME280;17179;48.022;7.858;2022-07-11T11:49:06;99244.63;;;27.35;27.81
30383;BME280;17179;48.022;7.858;2022-07-11T11:51:32;99247.16;;;27.40;27.39
30383;BME280;17179;48.022;7.858;2022-07-11T11:54:00;99252.63;;;27.52;27.45
30383;BME280;17179;48.022;7.858;2022-07-11T11:56:29;99246.84;;;27.58;27.23
30383;BME280;17179;48.022;7.858;2022-07-11T11:59:08;99244.13;;;27.77;28.05
30383;BME280;17179;48.022;7.858;2022-07-11T12:01:37;99245.94;;;27.86;27.38
30383;BME280;17179;48.022;7.858;2022-07-11T12:04:05;99247.53;;;28.03;27.86
30383;BME280;17179;48.022;7.858;2022-07-11T12:06:35;99241.72;;;28.24;27.33
30383;BME280;17179;48.022;7.858;2022-07-11T12:09:03;99231.78;;;28.43;26.59
30383;BME280;17179;48.022;7.858;2022-07-11T12:11:30;99230.81;;;28.71;26.36
30383;BME280;17179;48.022;7.858;2022-07-11T12:14:15;99234.31;;;29.08;26.60
30383;BME280;17179;48.022;7.858;2022-07-11T12:19:16;99229.34;;;29.64;24.72
30383;BME280;17179;48.022;7.858;2022-07-11T12:21:43;99229.94;;;30.01;24.62
30383;BME280;17179;48.022;7.858;2022-07-11T12:24:11;99226.81;;;30.30;24.74
30383;BME280;17179;48.022;7.858;2022-07-11T12:26:38;99223.97;;;30.57;24.61
30383;BME280;17179;48.022;7.858;2022-07-11T12:29:14;99222.72;;;30.85;25.23
30383;BME280;17179;48.022;7.858;2022-07-11T12:34:46;99217.69;;;31.33;24.11
30383;BME280;17179;48.022;7.858;2022-07-11T12:37:17;99210.69;;;31.53;23.50
30383;BME280;17179;48.022;7.858;2022-07-11T12:39:49;99212.03;;;31.74;23.17
30383;BME280;17179;48.022;7.858;2022-07-11T12:42:26;99201.81;;;31.93;23.36
30383;BME280;17179;48.022;7.858;2022-07-11T12:45:08;99200.72;;;32.12;23.27
30383;BME280;17179;48.022;7.858;2022-07-11T12:47:36;99206.00;;;32.21;22.62
30383;BME280;17179;48.022;7.858;2022-07-11T12:50:22;99207.31;;;32.42;22.95
30383;BME280;17179;48.022;7.858;2022-07-11T12:52:54;99205.78;;;32.59;22.75
30383;BME280;17179;48.022;7.858;2022-07-11T12:58:07;99210.31;;;32.93;23.00
30383;BME280;17179;48.022;7.858;2022-07-11T13:00:36;99193.16;;;33.10;21.37
30383;BME280;17179;48.022;7.858;2022-07-11T13:03:03;99193.97;;;33.25;21.09
30383;BME280;17179;48.022;7.858;2022-07-11T13:05:29;99190.41;;;33.42;21.04
30383;BME280;17179;48.022;7.858;2022-07-11T13:07:55;99187.97;;;33.59;21.45
30383;BME280;17179;48.022;7.858;2022-07-11T13:10:38;99204.81;;;33.74;20.95
30383;BME280;17179;48.022;7.858;2022-07-11T13:13:17;99196.78;;;33.94;21.10
30383;BME280;17179;48.022;7.858;2022-07-11T13:15:43;99197.94;;;34.11;20.55
30383;BME280;17179;48.022;7.858;2022-07-11T13:18:10;99192.28;;;34.30;20.43
30383;BME280;17179;48.022;7.858;2022-07-11T13:20:35;99198.63;;;34.45;19.80
30383;BME280;17179;48.022;7.858;2022-07-11T13:23:02;99205.00;;;34.56;19.55
30383;BME280;17179;48.022;7.858;2022-07-11T13:25:28;99202.19;;;34.67;19.68
30383;BME280;17179;48.022;7.858;2022-07-11T13:27:55;99206.19;;;34.74;19.27
30383;BME280;17179;48.022;7.858;2022-07-11T13:30:22;99205.28;;;34.88;19.50